createdAt,value
2018-03-23T00:01:41.127Z,38.10
2018-03-23T00:04:09.919Z,38.13
2018-03-23T00:06:38.722Z,33.37
2018-03-23T00:09:07.519Z,43.37
2018-03-23T00:11:36.323Z,40.83
2018-03-23T00:14:05.114Z,37.87
2018-03-23T00:16:33.931Z,36.03
2018-03-23T00:19:02.727Z,34.87
2018-03-23T00:21:31.527Z,37.23
2018-03-23T00:24:00.322Z,33.27
2018-03-23T00:26:29.125Z,35.67
2018-03-23T00:28:57.919Z,36.73
2018-03-23T00:31:26.713Z,32.03
2018-03-23T00:33:55.524Z,32.27
2018-03-23T00:36:24.321Z,37.27
2018-03-23T00:38:53.106Z,32.30
2018-03-23T00:41:21.905Z,23.00
2018-03-23T00:43:50.698Z,28.70
2018-03-23T00:46:19.494Z,28.40
2018-03-23T00:48:48.287Z,24.27
2018-03-23T00:51:17.086Z,25.23
2018-03-23T00:53:45.878Z,26.60
2018-03-23T00:56:14.683Z,23.90
2018-03-23T00:58:43.470Z,23.93
2018-03-23T01:01:12.280Z,27.63
2018-03-23T01:03:41.061Z,27.40
2018-03-23T01:06:09.871Z,26.90
2018-03-23T01:08:38.663Z,23.90
2018-03-23T01:11:07.466Z,24.80
2018-03-23T01:13:36.261Z,22.97
2018-03-23T01:16:05.064Z,21.17
2018-03-23T01:18:33.854Z,20.93
2018-03-23T01:21:02.654Z,24.20
2018-03-23T01:23:31.442Z,21.30
2018-03-23T01:26:00.272Z,28.13
2018-03-23T01:28:29.074Z,26.73
2018-03-23T01:30:57.862Z,21.27
2018-03-23T01:33:26.658Z,24.40
2018-03-23T01:35:55.459Z,22.40
2018-03-23T01:38:24.264Z,25.70
2018-03-23T01:40:53.050Z,21.40
2018-03-23T01:43:21.851Z,22.07
2018-03-23T01:45:50.642Z,21.50
2018-03-23T01:48:19.435Z,24.80
2018-03-23T01:50:48.236Z,24.07
2018-03-23T01:53:22.799Z,22.53
2018-03-23T01:55:51.586Z,20.17
2018-03-23T01:58:20.382Z,24.07
2018-03-23T02:00:49.182Z,25.00
2018-03-23T02:03:17.986Z,21.03
2018-03-23T02:05:46.779Z,21.47
2018-03-23T02:08:15.569Z,23.60
2018-03-23T02:10:44.378Z,24.13
2018-03-23T02:13:13.182Z,23.13
2018-03-23T02:15:41.979Z,19.80
2018-03-23T02:18:10.774Z,19.60
2018-03-23T02:20:39.562Z,21.47
2018-03-23T02:23:08.372Z,20.47
2018-03-23T02:25:37.163Z,21.10
2018-03-23T02:28:05.968Z,19.10
2018-03-23T02:30:34.762Z,18.50
2018-03-23T02:33:03.563Z,18.97
2018-03-23T02:35:32.355Z,20.13
2018-03-23T02:38:01.159Z,18.23
2018-03-23T02:40:29.951Z,16.63
2018-03-23T02:42:58.751Z,17.77
2018-03-23T02:45:27.546Z,15.40
2018-03-23T02:47:56.356Z,19.30
2018-03-23T02:50:25.142Z,12.33
2018-03-23T02:52:53.953Z,17.13
2018-03-23T02:55:22.747Z,13.60
2018-03-23T02:57:51.560Z,14.53
2018-03-23T03:00:20.347Z,16.43
2018-03-23T03:02:49.154Z,16.80
2018-03-23T03:05:17.942Z,19.47
2018-03-23T03:07:46.742Z,20.43
2018-03-23T03:10:15.538Z,21.53
2018-03-23T03:12:44.371Z,23.10
2018-03-23T03:15:13.149Z,22.33
2018-03-23T03:17:41.951Z,20.40
2018-03-23T03:20:10.751Z,23.10
2018-03-23T03:22:39.550Z,30.47
2018-03-23T03:25:08.337Z,25.43
2018-03-23T03:27:37.139Z,27.30
2018-03-23T03:30:05.942Z,26.50
2018-03-23T03:32:34.743Z,27.17
2018-03-23T03:35:03.526Z,23.13
2018-03-23T03:37:32.331Z,29.80
2018-03-23T03:40:01.122Z,28.20
2018-03-23T03:42:29.926Z,30.00
2018-03-23T03:44:58.721Z,28.93
2018-03-23T03:47:27.514Z,27.30
2018-03-23T03:49:56.306Z,27.73
2018-03-23T03:52:25.107Z,30.23
2018-03-23T03:54:53.902Z,27.20
2018-03-23T03:57:22.707Z,25.40
2018-03-23T03:59:51.502Z,23.33
2018-03-23T04:02:20.298Z,26.33
2018-03-23T04:04:49.090Z,28.87
2018-03-23T04:07:17.886Z,26.23
2018-03-23T04:09:46.678Z,25.00
2018-03-23T04:12:15.475Z,23.67
2018-03-23T04:14:44.271Z,27.90
2018-03-23T04:17:13.076Z,29.77
2018-03-23T04:19:41.894Z,28.23
2018-03-23T04:22:10.662Z,27.00
2018-03-23T04:24:39.457Z,30.30
2018-03-23T04:27:08.259Z,28.93
2018-03-23T04:29:37.054Z,25.37
2018-03-23T04:32:05.850Z,28.93
2018-03-23T04:34:34.646Z,34.03
2018-03-23T04:37:03.455Z,32.70
2018-03-23T04:39:32.242Z,32.40
2018-03-23T04:42:01.044Z,31.27
2018-03-23T04:44:29.840Z,36.50
2018-03-23T04:46:58.626Z,33.90
2018-03-23T04:49:27.426Z,31.30
2018-03-23T04:51:56.222Z,34.30
2018-03-23T04:54:25.023Z,35.80
2018-03-23T04:56:53.815Z,43.10
2018-03-23T04:59:22.606Z,37.60
2018-03-23T05:01:51.400Z,54.10
2018-03-23T05:04:20.206Z,33.60
2018-03-23T05:06:48.997Z,41.33
2018-03-23T05:09:17.790Z,39.77
2018-03-23T05:11:46.591Z,38.00
2018-03-23T05:14:15.383Z,44.37
2018-03-23T05:16:44.201Z,41.20
2018-03-23T05:19:12.990Z,43.13
2018-03-23T05:21:41.786Z,52.40
2018-03-23T05:24:10.574Z,48.63
2018-03-23T05:26:39.370Z,50.20
2018-03-23T05:29:08.168Z,53.73
2018-03-23T05:31:36.998Z,43.13
2018-03-23T05:34:05.763Z,47.57
2018-03-23T05:36:34.567Z,50.50
2018-03-23T05:39:03.366Z,49.90
2018-03-23T05:41:32.162Z,49.93
2018-03-23T05:44:00.971Z,50.37
2018-03-23T05:46:29.766Z,49.47
2018-03-23T05:48:58.553Z,40.87
2018-03-23T05:51:27.342Z,51.83
2018-03-23T05:53:56.711Z,53.17
2018-03-23T05:56:25.505Z,45.73
2018-03-23T05:58:54.298Z,54.47
2018-03-23T06:01:23.098Z,56.27
2018-03-23T06:03:51.890Z,51.87
2018-03-23T06:06:20.678Z,61.30
2018-03-23T06:08:49.478Z,56.27
2018-03-23T06:11:18.272Z,59.93
2018-03-23T06:13:47.078Z,53.13
2018-03-23T06:16:15.865Z,59.80
2018-03-23T06:18:44.671Z,67.40
2018-03-23T06:21:13.458Z,65.97
2018-03-23T06:23:42.254Z,65.60
2018-03-23T06:26:11.038Z,75.60
2018-03-23T06:28:39.839Z,99.23
2018-03-23T06:31:08.631Z,73.83
2018-03-23T06:33:37.431Z,86.93
2018-03-23T06:36:06.251Z,86.87
2018-03-23T06:38:35.055Z,83.20
2018-03-23T06:41:03.850Z,62.97
2018-03-23T06:43:32.643Z,71.60
2018-03-23T06:46:01.436Z,67.17
2018-03-23T06:48:30.299Z,66.20
2018-03-23T06:50:59.043Z,62.03
2018-03-23T06:53:27.847Z,61.83
2018-03-23T06:55:56.658Z,63.90
2018-03-23T06:58:25.434Z,69.07
2018-03-23T07:00:54.230Z,64.93
2018-03-23T07:03:23.018Z,67.53
2018-03-23T07:05:51.823Z,62.67
2018-03-23T07:08:20.619Z,62.30
2018-03-23T07:10:49.414Z,70.37
2018-03-23T07:13:18.216Z,58.33
2018-03-23T07:15:47.033Z,67.93
2018-03-23T07:18:15.850Z,62.97
2018-03-23T07:20:44.630Z,61.87
2018-03-23T07:23:13.431Z,62.80
2018-03-23T07:25:42.236Z,64.37
2018-03-23T07:28:11.023Z,64.70
2018-03-23T07:30:39.844Z,67.07
2018-03-23T07:33:08.643Z,64.00
2018-03-23T07:35:37.455Z,59.17
2018-03-23T07:38:06.251Z,62.37
2018-03-23T07:40:35.050Z,60.13
2018-03-23T07:43:03.846Z,61.47
2018-03-23T07:45:32.655Z,53.33
2018-03-23T07:48:01.534Z,47.63
2018-03-23T07:50:30.338Z,53.53
2018-03-23T07:52:59.131Z,48.50
2018-03-23T07:55:27.943Z,50.67
2018-03-23T07:57:56.748Z,41.37
2018-03-23T08:00:25.539Z,44.70
2018-03-23T08:02:54.338Z,38.27
2018-03-23T08:05:23.142Z,42.47
2018-03-23T08:07:51.946Z,39.83
2018-03-23T08:10:20.742Z,39.80
2018-03-23T08:12:49.561Z,37.97
2018-03-23T08:15:18.358Z,35.27
2018-03-23T08:17:47.158Z,33.37
2018-03-23T08:20:15.951Z,36.73
2018-03-23T08:22:44.750Z,35.63
2018-03-23T08:25:13.547Z,34.40
2018-03-23T08:27:42.348Z,36.33
2018-03-23T08:30:11.138Z,35.07
2018-03-23T08:32:39.934Z,36.50
2018-03-23T08:35:08.734Z,34.80
2018-03-23T08:37:37.531Z,33.77
2018-03-23T08:40:06.323Z,37.70
2018-03-23T08:42:35.135Z,33.73
2018-03-23T08:45:03.955Z,33.80
2018-03-23T08:47:32.750Z,40.67
2018-03-23T08:50:01.546Z,36.60
2018-03-23T08:52:30.351Z,35.57
2018-03-23T08:54:59.151Z,39.63
2018-03-23T08:57:27.958Z,37.93
2018-03-23T08:59:56.746Z,36.80
2018-03-23T09:02:25.551Z,39.53
2018-03-23T09:04:54.347Z,35.07
2018-03-23T09:07:23.150Z,35.27
2018-03-23T09:09:51.956Z,38.83
2018-03-23T09:12:20.758Z,36.33
2018-03-23T09:14:49.552Z,40.07
2018-03-23T09:17:18.352Z,41.53
2018-03-23T09:19:47.142Z,35.87
2018-03-23T09:22:15.947Z,38.73
2018-03-23T09:24:44.738Z,33.20
2018-03-23T09:27:13.534Z,37.03
2018-03-23T09:29:42.342Z,36.17
2018-03-23T09:32:11.125Z,36.77
2018-03-23T09:34:39.934Z,45.60
2018-03-23T09:37:08.734Z,38.83
2018-03-23T09:39:37.538Z,39.33
2018-03-23T09:42:06.338Z,48.20
2018-03-23T09:44:35.134Z,43.37
2018-03-23T09:47:03.922Z,37.67
2018-03-23T09:49:32.730Z,41.47
2018-03-23T09:52:01.523Z,48.27
2018-03-23T09:54:30.335Z,54.83
2018-03-23T09:56:59.119Z,52.87
2018-03-23T09:59:27.982Z,59.53
2018-03-23T10:01:56.779Z,55.07
2018-03-23T10:04:25.600Z,58.60
2018-03-23T10:06:54.380Z,50.83
2018-03-23T10:09:23.175Z,55.30
2018-03-23T10:11:51.973Z,52.97
2018-03-23T10:14:20.770Z,56.17
2018-03-23T10:16:49.558Z,54.23
2018-03-23T10:19:18.366Z,50.60
2018-03-23T10:21:47.158Z,53.77
2018-03-23T10:24:15.961Z,50.10
2018-03-23T10:26:44.753Z,44.83
2018-03-23T10:29:13.554Z,51.80
2018-03-23T10:31:42.350Z,48.37
2018-03-23T10:34:11.154Z,49.33
2018-03-23T10:36:39.947Z,53.30
2018-03-23T10:39:08.742Z,59.00
2018-03-23T10:41:37.542Z,57.80
2018-03-23T10:44:06.340Z,61.43
2018-03-23T10:46:35.137Z,64.93
2018-03-23T10:49:03.937Z,56.33
2018-03-23T10:51:32.740Z,65.30
2018-03-23T10:54:01.537Z,79.53
2018-03-23T10:56:30.338Z,106.53
2018-03-23T10:58:59.131Z,135.63
2018-03-23T11:01:31.893Z,153.90
2018-03-23T11:04:00.697Z,165.23
2018-03-23T11:06:29.498Z,166.53
2018-03-23T11:08:58.299Z,180.57
2018-03-23T11:11:27.107Z,170.90
2018-03-23T11:13:55.902Z,189.97
2018-03-23T11:16:24.708Z,178.33
2018-03-23T11:18:53.507Z,183.87
2018-03-23T11:21:22.311Z,178.10
2018-03-23T11:23:51.110Z,189.03
2018-03-23T11:26:19.922Z,179.27
2018-03-23T11:28:48.721Z,194.40
2018-03-23T11:31:17.526Z,189.97
2018-03-23T11:33:46.322Z,188.50
2018-03-23T11:36:15.127Z,186.53
2018-03-23T11:38:43.919Z,177.07
2018-03-23T11:41:12.722Z,173.27
2018-03-23T11:43:41.522Z,166.23
2018-03-23T11:46:10.330Z,162.73
2018-03-23T11:48:39.118Z,151.27
2018-03-23T11:51:07.927Z,165.90
2018-03-23T11:53:36.731Z,161.43
2018-03-23T11:56:05.546Z,153.50
2018-03-23T11:58:34.351Z,147.17
2018-03-23T12:01:03.146Z,156.57
2018-03-23T12:03:31.946Z,160.63
2018-03-23T12:06:00.738Z,155.10
2018-03-23T12:08:29.534Z,163.70
2018-03-23T12:10:58.334Z,149.10
2018-03-23T12:13:27.135Z,149.77
2018-03-23T12:15:55.943Z,156.17
2018-03-23T12:18:24.735Z,160.97
2018-03-23T12:20:53.535Z,141.87
2018-03-23T12:23:22.415Z,150.40
2018-03-23T12:25:51.221Z,122.47
2018-03-23T12:28:20.030Z,121.30
2018-03-23T12:30:48.826Z,122.00
2018-03-23T12:33:17.626Z,125.93
2018-03-23T12:35:46.426Z,134.23
2018-03-23T12:38:15.230Z,114.17
2018-03-23T12:40:44.027Z,127.47
2018-03-23T12:43:12.830Z,121.40
2018-03-23T12:45:41.639Z,126.33
2018-03-23T12:48:10.422Z,122.33
2018-03-23T12:50:39.219Z,111.20
2018-03-23T12:53:08.019Z,119.90
2018-03-23T12:55:36.814Z,105.33
2018-03-23T12:58:05.635Z,112.43
2018-03-23T13:00:34.422Z,97.50
2018-03-23T13:03:03.218Z,95.80
2018-03-23T13:05:32.014Z,96.67
2018-03-23T13:08:00.857Z,87.97
2018-03-23T13:10:29.657Z,83.57
2018-03-23T13:12:58.490Z,80.57
2018-03-23T13:15:27.295Z,84.80
2018-03-23T13:17:56.091Z,86.47
2018-03-23T13:20:24.886Z,94.10
2018-03-23T13:22:53.673Z,81.53
2018-03-23T13:25:22.470Z,68.27
2018-03-23T13:27:51.263Z,85.70
2018-03-23T13:30:20.065Z,78.87
2018-03-23T13:32:48.865Z,69.97
2018-03-23T13:35:17.658Z,69.53
2018-03-23T13:37:46.456Z,64.70
2018-03-23T13:40:15.264Z,71.50
2018-03-23T13:42:44.051Z,72.37
2018-03-23T13:45:12.850Z,65.87
2018-03-23T13:47:41.647Z,75.23
2018-03-23T13:50:10.483Z,78.00
2018-03-23T13:52:39.247Z,67.77
2018-03-23T13:55:08.055Z,71.53
2018-03-23T13:57:36.846Z,66.57
2018-03-23T14:00:05.655Z,64.60
2018-03-23T14:02:34.444Z,58.90
2018-03-23T14:05:03.238Z,53.37
2018-03-23T14:07:32.035Z,59.30
2018-03-23T14:10:00.826Z,57.77
2018-03-23T14:12:29.618Z,50.03
2018-03-23T14:14:58.414Z,51.57
2018-03-23T14:17:27.205Z,45.83
2018-03-23T14:19:56.002Z,55.83
2018-03-23T14:22:24.793Z,42.30
2018-03-23T14:24:53.594Z,47.30
2018-03-23T14:27:22.386Z,48.77
2018-03-23T14:29:53.766Z,45.67
2018-03-23T14:32:22.799Z,40.97
2018-03-23T14:34:51.590Z,43.20
2018-03-23T14:37:20.394Z,40.93
2018-03-23T14:39:49.182Z,39.53
2018-03-23T14:42:17.978Z,35.47
2018-03-23T14:44:46.770Z,35.63
2018-03-23T14:47:15.570Z,35.80
2018-03-23T14:49:44.363Z,35.00
2018-03-23T14:52:13.167Z,34.60
2018-03-23T14:54:41.957Z,33.73
2018-03-23T14:57:10.753Z,34.63
2018-03-23T14:59:39.550Z,30.57
2018-03-23T15:02:08.347Z,35.93
2018-03-23T15:04:37.125Z,32.80
2018-03-23T15:07:05.917Z,32.07
2018-03-23T15:09:34.720Z,37.00
2018-03-23T15:12:03.518Z,34.03
2018-03-23T15:14:32.306Z,28.87
2018-03-23T15:17:01.111Z,31.63
2018-03-23T15:19:29.899Z,31.83
2018-03-23T15:21:58.749Z,28.70
2018-03-23T15:24:27.547Z,30.40
2018-03-23T15:26:56.346Z,30.33
2018-03-23T15:29:25.160Z,30.67
2018-03-23T15:31:53.938Z,30.83
2018-03-23T15:34:22.734Z,37.87
2018-03-23T15:36:51.526Z,35.73
2018-03-23T15:39:20.313Z,31.53
2018-03-23T15:41:49.113Z,28.90
2018-03-23T15:44:17.997Z,32.27
2018-03-23T15:46:46.788Z,31.80
2018-03-23T15:49:15.566Z,30.40
2018-03-23T15:51:44.366Z,34.33
2018-03-23T15:54:13.155Z,31.63
2018-03-23T15:56:41.984Z,28.93
2018-03-23T15:59:10.762Z,25.97
2018-03-23T16:01:39.567Z,26.00
2018-03-23T16:04:08.346Z,28.80
2018-03-23T16:06:37.234Z,29.60
2018-03-23T16:09:06.031Z,25.50
2018-03-23T16:11:34.819Z,26.87
2018-03-23T16:14:03.620Z,26.60
2018-03-23T16:16:32.418Z,25.77
2018-03-23T16:19:01.229Z,25.80
2018-03-23T16:21:30.034Z,27.40
2018-03-23T16:23:59.617Z,24.80
2018-03-23T16:26:28.416Z,27.40
2018-03-23T16:28:57.202Z,27.40
2018-03-23T16:31:25.994Z,23.87
2018-03-23T16:33:54.792Z,25.30
2018-03-23T16:36:23.594Z,27.50
2018-03-23T16:38:52.382Z,26.77
2018-03-23T16:41:21.182Z,23.70
2018-03-23T16:43:49.974Z,27.20
2018-03-23T16:46:18.774Z,28.03
2018-03-23T16:48:47.562Z,24.80
2018-03-23T16:51:16.362Z,26.37
2018-03-23T16:53:45.158Z,24.60
2018-03-23T16:56:13.953Z,23.93
2018-03-23T16:58:42.751Z,24.47
2018-03-23T17:01:11.541Z,23.33
2018-03-23T17:03:40.330Z,26.37
2018-03-23T17:06:09.131Z,26.87
2018-03-23T17:08:37.913Z,28.90
2018-03-23T17:11:06.810Z,32.20
2018-03-23T17:13:35.598Z,36.03
2018-03-23T17:16:04.399Z,34.07
2018-03-23T17:18:33.205Z,37.20
2018-03-23T17:21:01.994Z,35.13
2018-03-23T17:23:30.793Z,32.73
2018-03-23T17:25:59.586Z,31.03
2018-03-23T17:28:28.389Z,32.43
2018-03-23T17:30:57.174Z,32.47
2018-03-23T17:33:25.974Z,31.40
2018-03-23T17:35:54.767Z,31.33
2018-03-23T17:38:23.566Z,30.77
2018-03-23T17:40:52.354Z,28.07
2018-03-23T17:43:21.148Z,30.93
2018-03-23T17:45:49.942Z,30.27
2018-03-23T17:48:18.738Z,26.47
2018-03-23T17:50:47.530Z,30.70
2018-03-23T17:53:16.329Z,23.27
2018-03-23T17:55:45.126Z,26.80
2018-03-23T17:58:13.918Z,27.47
2018-03-23T18:00:42.721Z,26.80
2018-03-23T18:03:11.504Z,35.27
2018-03-23T18:05:40.318Z,28.37
2018-03-23T18:08:09.117Z,26.50
2018-03-23T18:10:37.900Z,25.30
2018-03-23T18:13:06.699Z,26.13
2018-03-23T18:15:35.491Z,22.70
2018-03-23T18:18:04.289Z,25.17
2018-03-23T18:20:33.078Z,23.60
2018-03-23T18:23:01.952Z,20.13
2018-03-23T18:25:30.764Z,23.13
2018-03-23T18:27:59.526Z,25.43
2018-03-23T18:30:28.315Z,24.47
2018-03-23T18:32:57.118Z,23.80
2018-03-23T18:35:25.922Z,24.70
2018-03-23T18:37:54.718Z,22.17
2018-03-23T18:40:23.509Z,21.90
2018-03-23T18:42:52.319Z,26.20
2018-03-23T18:45:21.116Z,22.63
2018-03-23T18:47:49.938Z,21.07
2018-03-23T18:50:18.731Z,25.07
2018-03-23T18:52:47.530Z,30.97
2018-03-23T18:55:16.318Z,28.90
2018-03-23T18:57:45.122Z,28.93
2018-03-23T19:00:13.909Z,26.13
2018-03-23T19:02:42.707Z,27.77
2018-03-23T19:05:11.497Z,26.50
2018-03-23T19:07:41.525Z,27.17
2018-03-23T19:10:10.310Z,28.23
2018-03-23T19:12:39.121Z,29.63
2018-03-23T19:15:07.906Z,27.27
2018-03-23T19:17:36.711Z,27.50
2018-03-23T19:20:05.504Z,26.57
2018-03-23T19:22:34.304Z,28.43
2018-03-23T19:25:03.109Z,23.37
2018-03-23T19:27:31.947Z,24.23
2018-03-23T19:30:00.733Z,28.10
2018-03-23T19:32:29.745Z,25.77
2018-03-23T19:34:58.550Z,43.13
2018-03-23T19:37:27.368Z,66.43
2018-03-23T19:39:56.246Z,219.93
2018-03-23T19:42:25.024Z,106.07
2018-03-23T19:44:53.825Z,206.03
2018-03-23T19:47:22.630Z,100.93
2018-03-23T19:49:51.427Z,78.57
2018-03-23T19:52:20.223Z,80.47
2018-03-23T19:54:49.022Z,80.50
2018-03-23T19:57:19.076Z,90.10
2018-03-23T19:59:47.870Z,71.10
2018-03-23T20:02:16.657Z,70.73
2018-03-23T20:04:45.466Z,74.80
2018-03-23T20:07:14.274Z,74.30
2018-03-23T20:09:43.090Z,71.57
2018-03-23T20:12:11.909Z,74.70
2018-03-23T20:14:40.699Z,65.47
2018-03-23T20:17:09.487Z,76.10
2018-03-23T20:19:38.282Z,88.13
2018-03-23T20:22:07.111Z,73.07
2018-03-23T20:24:35.906Z,69.60
2018-03-23T20:27:10.410Z,69.53
2018-03-23T20:29:39.206Z,70.43
2018-03-23T20:32:13.780Z,69.20
2018-03-23T20:34:42.578Z,69.80
2018-03-23T20:37:11.375Z,74.83
2018-03-23T20:39:40.178Z,77.77
2018-03-23T20:42:08.966Z,63.97
2018-03-23T20:44:37.766Z,69.73
2018-03-23T20:47:06.565Z,67.07
2018-03-23T20:49:35.383Z,61.10
2018-03-23T20:52:04.170Z,61.27
2018-03-23T20:54:32.973Z,62.03
2018-03-23T20:57:01.754Z,58.17
2018-03-23T20:59:30.558Z,53.90
2018-03-23T21:01:59.342Z,56.17
2018-03-23T21:04:28.165Z,63.07
2018-03-23T21:06:56.918Z,58.90
2018-03-23T21:09:25.743Z,59.47
2018-03-23T21:11:54.550Z,61.10
2018-03-23T21:14:23.354Z,63.47
2018-03-23T21:16:52.138Z,60.60
2018-03-23T21:19:20.930Z,66.10
2018-03-23T21:21:49.719Z,62.20
2018-03-23T21:24:18.579Z,64.70
2018-03-23T21:26:47.365Z,62.07
2018-03-23T21:29:16.182Z,61.97
2018-03-23T21:31:45.003Z,57.20
2018-03-23T21:34:13.787Z,67.73
2018-03-23T21:36:42.578Z,60.83
2018-03-23T21:39:11.373Z,63.40
2018-03-23T21:41:40.166Z,59.90
2018-03-23T21:44:08.954Z,58.40
2018-03-23T21:46:37.750Z,57.73
2018-03-23T21:49:06.542Z,58.37
2018-03-23T21:51:35.360Z,56.63
2018-03-23T21:54:04.168Z,51.40
2018-03-23T21:56:32.963Z,58.27
2018-03-23T21:59:01.755Z,62.57
2018-03-23T22:01:30.554Z,59.17
2018-03-23T22:03:59.338Z,63.13
2018-03-23T22:06:28.158Z,66.57
2018-03-23T22:08:56.942Z,61.33
2018-03-23T22:11:25.759Z,63.67
2018-03-23T22:13:54.534Z,65.23
2018-03-23T22:16:23.360Z,60.63
2018-03-23T22:18:52.119Z,58.13
2018-03-23T22:21:20.914Z,55.37
2018-03-23T22:23:49.705Z,63.63
2018-03-23T22:26:18.514Z,62.20
2018-03-23T22:28:47.296Z,66.27
2018-03-23T22:31:16.092Z,59.93
2018-03-23T22:33:44.882Z,56.97
2018-03-23T22:36:13.686Z,53.70
2018-03-23T22:38:42.486Z,63.67
2018-03-23T22:41:11.281Z,64.20
2018-03-23T22:43:40.074Z,57.97
2018-03-23T22:46:08.867Z,52.07
2018-03-23T22:48:37.658Z,62.23
2018-03-23T22:51:06.450Z,63.67
2018-03-23T22:53:35.246Z,63.20
2018-03-23T22:56:04.034Z,58.37
2018-03-23T22:58:32.841Z,62.93
2018-03-23T23:01:01.646Z,57.30
2018-03-23T23:03:30.426Z,60.47
2018-03-23T23:05:59.213Z,65.33
2018-03-23T23:08:28.010Z,65.53
2018-03-23T23:10:56.802Z,64.20
2018-03-23T23:13:25.602Z,62.10
2018-03-23T23:15:54.394Z,70.47
2018-03-23T23:18:23.206Z,68.87
2018-03-23T23:20:52.007Z,75.50
2018-03-23T23:23:20.810Z,62.87
2018-03-23T23:25:49.600Z,60.40
2018-03-23T23:28:18.399Z,66.17
2018-03-23T23:30:47.186Z,61.53
2018-03-23T23:33:15.982Z,55.47
2018-03-23T23:35:44.783Z,67.07
2018-03-23T23:38:13.583Z,63.13
2018-03-23T23:40:42.375Z,65.87
2018-03-23T23:43:11.170Z,64.90
2018-03-23T23:45:39.975Z,64.13
2018-03-23T23:48:08.760Z,59.43
2018-03-23T23:50:37.556Z,62.00
2018-03-23T23:53:06.359Z,56.00
2018-03-23T23:55:35.155Z,60.30
2018-03-23T23:58:03.970Z,63.13
